Time;durP1;ratioP1;P1;durP2;ratioP2;P2;SDS_P1;SDS_P2;PMS_P1;PMS_P2;Temp;Humidity;BMP_temperature;BMP_pressure;BME280_temperature;BME280_humidity;BME280_pressure;Samples;Min_cycle;Max_cycle;Signal;HPM_P1;HPM_P2
2024/01/18 00:00:13;;;;;;;7.97;5.23;;;;;;;-12.02;87.12;100342.66;5042963;28;20037;-68
2024/01/18 00:02:39;;;;;;;6.20;4.75;;;;;;;-11.95;87.55;100356.22;5042078;28;20055;-69
2024/01/18 00:05:23;;;;;;;4.95;4.45;;;;;;;-11.96;87.90;100355.38;5036270;28;20178;-67
2024/01/18 00:07:48;;;;;;;10.05;5.03;;;;;;;-11.97;86.82;100345.13;5039674;28;20037;-73
2024/01/18 00:10:14;;;;;;;6.87;4.20;;;;;;;-11.89;86.78;100354.34;5037798;28;20042;-72
2024/01/18 00:12:41;;;;;;;4.93;4.03;;;;;;;-11.94;86.82;100355.34;5043859;28;20040;-72
2024/01/18 00:15:08;;;;;;;4.00;3.50;;;;;;;-11.92;86.91;100356.13;5041020;28;20528;-71
2024/01/18 00:17:33;;;;;;;5.50;4.70;;;;;;;-12.04;86.64;100338.44;5039029;28;20572;-71
2024/01/18 00:19:59;;;;;;;5.03;4.63;;;;;;;-11.98;87.36;100339.16;5043467;28;20132;-72
2024/01/18 00:22:24;;;;;;;6.10;3.97;;;;;;;-11.90;86.66;100346.69;5043587;28;20049;-70
2024/01/18 00:24:50;;;;;;;5.13;4.60;;;;;;;-12.08;86.41;100322.25;5041411;28;20087;-69
2024/01/18 00:27:16;;;;;;;4.77;4.13;;;;;;;-11.93;86.71;100351.88;5041035;28;20044;-69
2024/01/18 00:29:42;;;;;;;6.47;5.00;;;;;;;-11.98;87.05;100333.16;5053509;28;20813;-69
2024/01/18 00:32:08;;;;;;;8.90;4.43;;;;;;;-12.75;85.99;100215.00;5043082;28;20280;-73
2024/01/18 00:34:33;;;;;;;4.63;3.60;;;;;;;-11.99;85.56;100339.19;5044341;28;20634;-69
2024/01/18 00:36:59;;;;;;;3.73;3.43;;;;;;;-11.98;86.05;100340.88;5038438;28;20044;-68
2024/01/18 00:39:24;;;;;;;5.57;4.87;;;;;;;-12.05;86.48;100331.63;5046145;28;20041;-69
2024/01/18 00:41:50;;;;;;;3.47;3.17;;;;;;;-12.09;86.70;100319.72;5044071;28;20052;-69
2024/01/18 00:44:16;;;;;;;5.77;4.30;;;;;;;-12.04;86.36;100328.16;5039930;28;20492;-70
2024/01/18 00:46:41;;;;;;;5.60;3.80;;;;;;;-11.98;85.54;100333.16;5035151;28;20657;-71
2024/01/18 00:49:07;;;;;;;6.27;4.10;;;;;;;-12.38;85.73;100263.84;5039553;28;20128;-71
2024/01/18 00:51:32;;;;;;;5.80;4.10;;;;;;;-11.93;85.79;100336.47;5038467;28;20127;-72
2024/01/18 00:53:58;;;;;;;4.70;4.30;;;;;;;-11.94;85.88;100324.53;5037414;28;20551;-70
2024/01/18 00:56:23;;;;;;;4.27;3.77;;;;;;;-11.90;86.63;100329.56;5034186;28;20095;-68
2024/01/18 00:58:50;;;;;;;5.43;4.40;;;;;;;-12.01;85.93;100292.16;5043676;28;20041;-68
2024/01/18 01:01:16;;;;;;;7.43;4.18;;;;;;;-12.17;86.03;100265.09;5043058;28;20820;-72
2024/01/18 01:03:42;;;;;;;5.40;4.50;;;;;;;-11.85;85.88;100314.06;5037451;28;20044;-72
2024/01/18 01:06:11;;;;;;;4.93;4.37;;;;;;;-11.75;85.15;100314.66;5042663;28;20041;-69
2024/01/18 01:08:38;;;;;;;3.78;3.35;;;;;;;-11.81;84.43;100315.69;5037042;28;20061;-71
2024/01/18 01:11:05;;;;;;;9.52;4.18;;;;;;;-11.83;85.30;100309.75;5038921;28;20115;-69
2024/01/18 01:13:30;;;;;;;4.40;3.97;;;;;;;-11.90;85.33;100297.91;5043301;28;20044;-70
2024/01/18 01:15:56;;;;;;;5.10;4.27;;;;;;;-11.95;85.40;100292.03;5036249;28;20041;-71
2024/01/18 01:18:23;;;;;;;4.05;3.65;;;;;;;-12.00;84.87;100284.41;5039160;28;20118;-69
2024/01/18 01:20:49;;;;;;;4.47;3.75;;;;;;;-11.86;84.23;100299.50;5041021;28;20049;-71
2024/01/18 01:23:15;;;;;;;5.83;4.33;;;;;;;-11.87;84.90;100292.69;5043461;28;20051;-70
2024/01/18 01:25:40;;;;;;;4.43;4.03;;;;;;;-12.06;84.91;100256.31;5043124;28;20037;-71
2024/01/18 01:28:06;;;;;;;5.90;5.30;;;;;;;-11.95;84.89;100266.34;5044785;28;20044;-69
2024/01/18 01:30:32;;;;;;;4.95;4.05;;;;;;;-12.09;84.92;100242.72;5046053;28;20132;-68
2024/01/18 01:32:58;;;;;;;4.70;4.30;;;;;;;-12.05;85.58;100241.75;5042221;28;20101;-69
2024/01/18 01:35:23;;;;;;;4.97;3.90;;;;;;;-11.79;86.04;100269.44;5040790;28;20032;-71
2024/01/18 01:37:49;;;;;;;5.47;4.53;;;;;;;-11.74;84.83;100275.25;5046369;28;20033;-71
2024/01/18 01:40:14;;;;;;;4.53;4.13;;;;;;;-12.09;84.91;100207.63;5045201;28;20123;-67
2024/01/18 01:42:40;;;;;;;3.90;3.60;;;;;;;-11.80;85.28;100235.19;5046450;28;20500;-68
2024/01/18 01:45:06;;;;;;;6.70;3.40;;;;;;;-11.64;84.62;100251.03;5037313;28;20071;-69
2024/01/18 01:47:32;;;;;;;6.13;3.65;;;;;;;-11.75;84.86;100212.78;5049654;28;20045;-70
2024/01/18 01:49:58;;;;;;;6.20;4.37;;;;;;;-11.67;85.09;100221.13;5046943;28;20032;-68
2024/01/18 01:52:27;;;;;;;3.78;3.38;;;;;;;-11.59;84.99;100216.66;5051692;28;20033;-65
2024/01/18 01:54:52;;;;;;;;;;;;;;;-11.53;85.97;100212.28;5047911;28;20524;-70
2024/01/18 01:57:20;;;;;;;3.47;3.27;;;;;;;-11.60;85.06;100184.13;5048801;28;19920;-70
2024/01/18 01:59:46;;;;;;;3.40;3.10;;;;;;;-11.64;85.40;100174.81;5045982;28;20120;-68
2024/01/18 02:02:13;;;;;;;3.92;3.63;;;;;;;-11.60;85.00;100173.84;5041962;28;20046;-69
2024/01/18 02:04:39;;;;;;;3.58;3.28;;;;;;;-11.70;85.44;100167.28;5055196;28;20444;-69
2024/01/18 02:07:06;;;;;;;4.10;3.70;;;;;;;-11.56;85.01;100179.78;5045220;28;20044;-69
2024/01/18 02:09:32;;;;;;;7.00;3.92;;;;;;;-11.71;84.34;100183.56;5047733;28;20084;-72
2024/01/18 02:11:59;;;;;;;8.55;3.58;;;;;;;-11.83;84.16;100173.63;5042634;28;20037;-69
2024/01/18 02:14:27;;;;;;;4.75;4.32;;;;;;;-11.81;84.17;100182.16;5036045;28;20081;-70
2024/01/18 02:16:53;;;;;;;5.05;3.80;;;;;;;-11.87;84.58;100172.00;5033498;28;20057;-68
2024/01/18 02:19:20;;;;;;;10.80;5.60;;;;;;;-12.00;84.54;100140.66;5042170;28;20051;-69
2024/01/18 02:21:46;;;;;;;5.25;4.55;;;;;;;-11.85;84.34;100160.00;5021541;28;20064;-70
2024/01/18 02:24:18;;;;;;;4.13;3.53;;;;;;;-11.77;84.27;100172.59;5038510;28;21395;-69
2024/01/18 02:26:45;;;;;;;6.03;5.15;;;;;;;-11.87;83.42;100154.03;5033625;28;20068;-70
2024/01/18 02:29:11;;;;;;;5.60;4.20;;;;;;;-11.88;83.72;100152.34;5035116;28;20049;-69
2024/01/18 02:31:36;;;;;;;5.57;4.77;;;;;;;-11.91;84.35;100147.28;5033778;28;20446;-69
2024/01/18 02:34:09;;;;;;;7.03;4.60;;;;;;;-12.17;84.83;100111.13;5029055;28;20048;-69
2024/01/18 02:36:35;;;;;;;5.20;4.65;;;;;;;-12.07;84.67;100115.16;5038706;28;20140;-70
2024/01/18 02:39:02;;;;;;;7.50;5.70;;;;;;;-12.20;83.50;100094.91;5035416;28;20123;-70
2024/01/18 02:41:28;;;;;;;6.05;4.47;;;;;;;-12.30;83.98;100090.03;5043741;28;20041;-69
2024/01/18 02:43:53;;;;;;;5.95;5.22;;;;;;;-12.27;84.25;100108.78;5043593;28;20508;-70
2024/01/18 02:46:19;;;;;;;6.23;4.43;;;;;;;-12.36;84.11;100090.19;5042446;28;20037;-69
2024/01/18 02:48:45;;;;;;;4.93;3.87;;;;;;;-12.30;84.74;100113.97;5044380;28;20044;-69
2024/01/18 02:51:10;;;;;;;5.87;5.27;;;;;;;-12.45;84.89;100096.38;5035958;28;20547;-68
2024/01/18 02:53:35;;;;;;;4.53;4.13;;;;;;;-12.56;85.05;100059.88;5033854;28;20033;-68
2024/01/18 02:56:01;;;;;;;5.93;4.50;;;;;;;-12.37;85.04;100091.91;5039738;28;20032;-69
2024/01/18 02:58:26;;;;;;;6.27;5.30;;;;;;;-12.36;84.97;100074.81;5040390;28;20072;-67
2024/01/18 03:00:53;;;;;;;4.50;3.80;;;;;;;-12.23;84.33;100092.41;5049868;28;20045;-69
2024/01/18 03:03:20;;;;;;;5.45;5.00;;;;;;;-12.52;84.08;100044.38;5042859;28;20051;-68
2024/01/18 03:05:45;;;;;;;5.00;4.53;;;;;;;-12.51;84.11;100042.63;5043795;28;20041;-68
2024/01/18 03:08:11;;;;;;;5.70;4.63;;;;;;;-12.49;84.61;100048.56;5046799;28;20040;-71
2024/01/18 03:10:37;;;;;;;5.28;4.18;;;;;;;-12.40;84.64;100055.22;5030821;28;20064;-68
2024/01/18 03:13:03;;;;;;;5.50;4.90;;;;;;;-12.31;85.05;100060.13;5038246;28;20446;-70
2024/01/18 03:15:28;;;;;;;5.63;3.57;;;;;;;-12.35;84.25;100041.41;5049021;28;20062;-70
2024/01/18 03:17:54;;;;;;;4.43;4.03;;;;;;;-12.20;85.19;100069.25;5048287;28;20053;-67
2024/01/18 03:20:19;;;;;;;7.33;4.70;;;;;;;-12.13;84.71;100062.25;5046751;28;20049;-66
2024/01/18 03:22:45;;;;;;;4.43;3.73;;;;;;;-12.23;84.35;100032.56;5037991;28;20088;-73
2024/01/18 03:25:12;;;;;;;4.60;4.20;;;;;;;-12.02;84.33;100059.41;5045519;28;20041;-70
2024/01/18 03:27:38;;;;;;;4.50;3.58;;;;;;;-12.04;83.77;100044.06;5037987;28;20280;-71
2024/01/18 03:30:07;;;;;;;4.15;3.78;;;;;;;-12.01;84.53;100025.16;5038203;28;20033;-74
2024/01/18 03:32:33;;;;;;;4.43;3.67;;;;;;;-12.11;84.21;99987.78;5041900;28;20063;-68
2024/01/18 03:34:59;;;;;;;6.37;4.30;;;;;;;-11.95;83.47;100014.72;5049789;28;20504;-70
2024/01/18 03:37:24;;;;;;;4.57;4.18;;;;;;;-11.95;83.82;100015.56;5044115;28;20060;-73
2024/01/18 03:39:51;;;;;;;4.75;4.30;;;;;;;-11.97;83.07;100006.22;5041055;28;20033;-70
2024/01/18 03:42:16;;;;;;;8.87;3.93;;;;;;;-11.89;83.13;100015.41;5038148;28;20041;-71
2024/01/18 03:44:42;;;;;;;3.50;3.13;;;;;;;-11.83;83.00;100013.56;5039491;28;20045;-70
2024/01/18 03:47:07;;;;;;;5.57;5.17;;;;;;;-12.01;82.34;99972.09;5036702;28;20208;-67
2024/01/18 03:49:33;;;;;;;4.03;3.63;;;;;;;-11.86;82.47;100003.38;5039755;28;20575;-70
2024/01/18 03:51:58;;;;;;;4.53;4.00;;;;;;;-11.97;82.44;99971.13;5047251;28;20435;-69
2024/01/18 03:54:24;;;;;;;4.23;3.93;;;;;;;-11.85;82.02;99976.78;5042492;28;20396;-69
2024/01/18 03:56:49;;;;;;;4.67;4.23;;;;;;;-11.81;82.12;99971.56;5038850;28;20073;-70
2024/01/18 03:59:15;;;;;;;8.03;5.40;;;;;;;-11.63;82.07;99970.16;5039731;28;20041;-73
2024/01/18 04:01:41;;;;;;;3.87;3.50;;;;;;;-11.53;81.66;99974.16;5042504;28;20081;-73
2024/01/18 04:04:07;;;;;;;4.23;3.80;;;;;;;-11.65;81.42;99954.78;5028048;28;20094;-72
2024/01/18 04:06:33;;;;;;;4.07;3.67;;;;;;;-11.53;81.31;99965.63;5041558;28;20283;-71
2024/01/18 04:08:58;;;;;;;6.73;3.67;;;;;;;-11.56;81.03;99961.41;5036753;28;20037;-70
2024/01/18 04:11:24;;;;;;;4.70;4.13;;;;;;;-11.76;81.49;99933.72;5045403;28;20040;-72
2024/01/18 04:13:50;;;;;;;5.17;4.77;;;;;;;-11.71;81.38;99934.41;5038621;28;20041;-73
2024/01/18 04:16:15;;;;;;;4.23;3.53;;;;;;;-11.51;81.51;99961.28;5064523;28;20064;-69
2024/01/18 04:18:41;;;;;;;3.93;3.57;;;;;;;-11.47;81.79;99952.59;5039000;28;20390;-71
2024/01/18 04:21:06;;;;;;;3.70;3.40;;;;;;;-11.40;81.81;99948.94;5041469;28;20041;-71
2024/01/18 04:23:32;;;;;;;7.00;3.70;;;;;;;-11.43;80.77;99931.91;5044687;28;20085;-70
2024/01/18 04:25:58;;;;;;;6.13;4.17;;;;;;;-11.50;81.34;99920.13;5043554;28;20037;-72
2024/01/18 04:28:23;;;;;;;7.37;3.80;;;;;;;-11.54;80.37;99904.84;5042010;28;20041;-70
2024/01/18 04:30:49;;;;;;;4.87;4.47;;;;;;;-11.50;81.38;99904.72;5041685;28;20045;-75
2024/01/18 04:33:14;;;;;;;7.40;4.13;;;;;;;-11.32;80.81;99921.28;5042317;28;20041;-70
2024/01/18 04:35:40;;;;;;;5.40;4.40;;;;;;;-11.25;80.75;99925.38;5042852;28;20084;-71
2024/01/18 04:38:07;;;;;;;7.37;4.30;;;;;;;-11.31;80.90;99907.53;5042036;28;20041;-70
2024/01/18 04:40:33;;;;;;;6.55;4.47;;;;;;;-11.22;80.57;99915.00;5036230;28;20456;-72
2024/01/18 04:43:01;;;;;;;4.35;3.95;;;;;;;-11.61;80.09;99853.63;5043178;28;20041;-69
2024/01/18 04:45:27;;;;;;;5.38;4.15;;;;;;;-11.37;80.19;99889.75;5046021;28;20056;-70
2024/01/18 04:47:53;;;;;;;6.60;4.63;;;;;;;-12.18;80.49;99748.41;5047904;28;20045;-71
2024/01/18 04:50:24;;;;;;;4.75;4.25;;;;;;;-12.04;79.30;99758.28;5041194;28;20079;-72
2024/01/18 04:52:53;;;;;;;8.63;3.88;;;;;;;-11.08;79.72;99899.97;5038592;28;20032;-70
2024/01/18 04:55:19;;;;;;;5.50;4.63;;;;;;;-11.09;80.19;99880.28;5044676;28;20052;-70
2024/01/18 04:57:47;;;;;;;5.50;4.15;;;;;;;-11.16;79.71;99857.41;5041678;28;20356;-71
2024/01/18 05:00:13;;;;;;;6.75;5.30;;;;;;;-11.18;79.77;99839.47;5049640;28;20049;-69
2024/01/18 05:02:39;;;;;;;5.40;4.85;;;;;;;-11.00;79.68;99866.28;5047857;28;20033;-73
2024/01/18 05:05:08;;;;;;;4.10;3.80;;;;;;;-11.08;79.20;99840.00;5052568;28;20044;-71
2024/01/18 05:07:46;;;;;;;5.13;4.43;;;;;;;-11.13;80.07;99829.88;5045524;28;20041;-71
2024/01/18 05:10:12;;;;;;;4.80;4.40;;;;;;;-10.91;79.84;99862.59;5045194;28;20036;-69
2024/01/18 05:12:38;;;;;;;4.77;4.30;;;;;;;-10.89;80.35;99845.38;5038681;28;20064;-69
2024/01/18 05:15:04;;;;;;;5.70;4.53;;;;;;;-11.00;80.40;99818.28;5043005;28;20065;-68
2024/01/18 05:17:35;;;;;;;4.20;3.90;;;;;;;-10.86;80.95;99829.84;5045144;28;20061;-69
2024/01/18 05:20:22;;;;;;;4.38;3.97;;;;;;;-11.86;81.39;99670.41;5045388;28;20467;-69
2024/01/18 05:22:47;;;;;;;5.00;3.47;;;;;;;-10.78;80.89;99808.13;5044641;28;20074;-69
2024/01/18 05:25:13;;;;;;;4.10;3.70;;;;;;;-10.89;79.96;99792.22;5051364;28;20044;-71
2024/01/18 05:27:40;;;;;;;4.82;4.10;;;;;;;-10.90;80.66;99775.09;5040463;28;20488;-69
2024/01/18 05:30:07;;;;;;;5.28;4.65;;;;;;;-10.78;80.06;99791.84;5041554;28;20091;-66
2024/01/18 05:32:33;;;;;;;5.35;4.10;;;;;;;-10.79;80.01;99787.59;5044696;28;20038;-69
2024/01/18 05:35:01;;;;;;;4.80;4.40;;;;;;;-10.81;80.33;99768.81;5048077;28;20043;-70
2024/01/18 05:37:29;;;;;;;6.78;5.38;;;;;;;-10.65;80.51;99787.97;5041601;28;20372;-68
2024/01/18 05:39:55;;;;;;;4.50;4.13;;;;;;;-10.67;80.55;99771.75;5045032;28;20142;-71
2024/01/18 05:42:22;;;;;;;3.40;3.13;;;;;;;-10.72;79.99;99741.00;5044227;28;20045;-70
2024/01/18 05:44:48;;;;;;;7.60;4.72;;;;;;;-10.63;80.62;99751.00;5048532;28;20101;-71
2024/01/18 05:47:14;;;;;;;4.05;3.75;;;;;;;-10.51;80.41;99749.69;5043516;28;20038;-71
2024/01/18 05:49:40;;;;;;;6.77;4.73;;;;;;;-10.65;80.41;99716.78;5042304;28;20120;-69
2024/01/18 05:52:06;;;;;;;4.97;4.37;;;;;;;-10.53;80.42;99714.63;5040083;28;20107;-71
2024/01/18 05:54:33;;;;;;;4.38;3.92;;;;;;;-10.68;87.22;99687.75;5041760;28;20037;-69
2024/01/18 05:57:00;;;;;;;4.72;4.00;;;;;;;-10.49;88.28;99711.06;5032838;28;20029;-71
2024/01/18 05:59:25;;;;;;;5.95;4.38;;;;;;;-10.61;88.40;99681.47;5033055;28;20051;-69
2024/01/18 06:01:51;;;;;;;13.67;5.00;;;;;;;-10.46;88.29;99695.50;5030261;28;20079;-69
2024/01/18 06:04:16;;;;;;;5.10;4.53;;;;;;;-10.49;86.77;99691.31;5040525;28;20812;-69
2024/01/18 06:06:43;;;;;;;7.67;5.00;;;;;;;-10.57;83.70;99670.16;5037322;28;20037;-67
2024/01/18 06:09:09;;;;;;;6.65;4.53;;;;;;;-10.37;84.29;99697.75;5035054;28;20061;-71
2024/01/18 06:11:35;;;;;;;5.13;4.25;;;;;;;-10.41;84.71;99684.16;5036367;28;20041;-68
2024/01/18 06:14:00;;;;;;;9.93;5.17;;;;;;;-10.34;83.46;99688.16;5035808;28;20044;-70
2024/01/18 06:16:26;;;;;;;10.70;4.47;;;;;;;-10.44;82.68;99667.97;5043207;28;20144;-70
2024/01/18 06:18:53;;;;;;;9.55;5.20;;;;;;;-10.49;82.47;99650.13;5040122;28;20076;-71
2024/01/18 06:21:19;;;;;;;4.65;4.22;;;;;;;-10.27;82.65;99680.19;5035466;28;20037;-67
2024/01/18 06:23:45;;;;;;;6.10;5.60;;;;;;;-10.24;82.13;99680.09;5034537;28;20141;-71
2024/01/18 06:26:11;;;;;;;7.57;5.10;;;;;;;-10.26;80.20;99656.13;5033932;28;20038;-71
2024/01/18 06:28:38;;;;;;;6.03;4.05;;;;;;;-10.26;80.21;99651.00;5035212;28;20056;-68
2024/01/18 06:31:04;;;;;;;5.63;4.82;;;;;;;-10.29;79.98;99630.50;5039849;28;20497;-69
2024/01/18 06:33:30;;;;;;;6.88;4.93;;;;;;;-10.25;80.00;99621.78;5043433;28;20403;-70
2024/01/18 06:35:55;;;;;;;5.23;4.33;;;;;;;-10.34;80.33;99598.06;5040925;28;20037;-69
2024/01/18 06:38:21;;;;;;;4.47;4.07;;;;;;;-10.19;80.10;99637.78;5040813;28;20045;-69
2024/01/18 06:40:47;;;;;;;6.20;4.50;;;;;;;-10.26;83.06;99627.81;5038362;28;20295;-69
2024/01/18 06:43:14;;;;;;;7.40;5.22;;;;;;;-10.28;86.81;99624.47;5040711;28;20425;-68
2024/01/18 06:45:39;;;;;;;5.85;4.53;;;;;;;-10.30;84.82;99619.38;5040060;28;20049;-70
2024/01/18 06:48:06;;;;;;;7.27;4.77;;;;;;;-10.24;86.17;99623.44;5031872;28;20037;-70
2024/01/18 06:50:36;;;;;;;6.07;5.18;;;;;;;-10.34;86.99;99595.50;5041041;28;20416;-68
2024/01/18 06:53:03;;;;;;;5.53;3.97;;;;;;;-10.18;85.96;99611.13;5039545;28;20072;-69
2024/01/18 06:55:29;;;;;;;7.90;3.88;;;;;;;-10.26;83.86;99589.22;5039605;28;20123;-70
2024/01/18 06:57:55;;;;;;;5.45;3.88;;;;;;;-10.25;87.13;99596.03;5041888;28;20552;-69
2024/01/18 07:00:24;;;;;;;6.47;4.53;;;;;;;-10.46;91.55;99552.22;5049039;28;20515;-68
2024/01/18 07:02:51;;;;;;;5.72;4.45;;;;;;;-10.34;88.53;99572.34;5045830;28;20128;-71
2024/01/18 07:05:20;;;;;;;6.20;4.68;;;;;;;-10.29;88.40;99546.41;5040345;28;20068;-68
2024/01/18 07:07:46;;;;;;;5.60;5.10;;;;;;;-10.29;86.13;99536.13;5047233;28;20037;-68
2024/01/18 07:10:12;;;;;;;4.77;4.37;;;;;;;-10.43;84.99;99523.78;5028997;28;20083;-67
2024/01/18 07:12:37;;;;;;;6.93;4.40;;;;;;;-10.26;84.67;99486.25;5042322;28;20032;-70
2024/01/18 07:15:03;;;;;;;5.97;4.50;;;;;;;-10.21;84.05;99490.28;5045676;28;20044;-68
2024/01/18 07:17:31;;;;;;;4.68;4.10;;;;;;;-9.93;82.79;99526.00;5048726;28;20055;-68
2024/01/18 07:19:58;;;;;;;7.20;4.07;;;;;;;-10.06;82.47;99515.38;5046487;28;20042;-70
2024/01/18 07:22:25;;;;;;;4.60;4.20;;;;;;;-10.07;83.23;99534.31;5045351;28;20179;-68
2024/01/18 07:24:54;;;;;;;8.35;4.85;;;;;;;-10.06;83.99;99519.69;5041646;28;20505;-68
2024/01/18 07:27:20;;;;;;;10.13;6.50;;;;;;;-10.12;85.91;99531.09;5042838;28;20073;-68
2024/01/18 07:29:49;;;;;;;14.57;7.47;;;;;;;-10.38;86.07;99488.44;5044462;28;20041;-68
2024/01/18 07:32:15;;;;;;;9.85;7.15;;;;;;;-11.09;87.01;99370.44;5045719;28;20404;-68
2024/01/18 07:34:40;;;;;;;10.48;6.22;;;;;;;-10.17;85.93;99509.81;5042092;28;20045;-68
2024/01/18 07:37:08;;;;;;;6.60;5.23;;;;;;;-10.28;85.23;99504.31;5045978;28;20052;-70
2024/01/18 07:39:38;;;;;;;4.35;3.72;;;;;;;-10.27;85.15;99494.84;5039823;28;20041;-68
2024/01/18 07:42:03;;;;;;;4.70;3.40;;;;;;;-10.32;84.21;99495.91;5039238;28;20099;-70
2024/01/18 07:44:29;;;;;;;4.30;3.80;;;;;;;-10.29;84.19;99502.66;5044890;28;20450;-69
2024/01/18 07:46:55;;;;;;;6.03;3.43;;;;;;;-10.36;84.54;99473.75;5041647;28;20040;-69
2024/01/18 07:49:20;;;;;;;15.17;4.50;;;;;;;-10.50;92.77;99470.91;5041875;28;20048;-70
2024/01/18 07:51:46;;;;;;;4.47;3.70;;;;;;;-10.55;97.21;99472.81;5043702;28;20094;-68
2024/01/18 07:54:12;;;;;;;9.10;4.17;;;;;;;-10.50;95.36;99457.19;5042342;28;20083;-69
2024/01/18 07:56:37;;;;;;;5.20;3.50;;;;;;;-10.28;93.30;99494.03;5041562;28;20500;-68
2024/01/18 07:59:03;;;;;;;4.90;3.97;;;;;;;-10.26;92.55;99491.38;5041632;28;20041;-70
2024/01/18 08:01:28;;;;;;;3.73;3.40;;;;;;;-10.27;91.40;99469.97;5042519;28;20501;-71
2024/01/18 08:03:54;;;;;;;4.90;3.77;;;;;;;-10.24;91.67;99480.13;5039216;28;20056;-69
2024/01/18 08:06:19;;;;;;;3.87;3.57;;;;;;;-10.25;89.57;99462.16;5045458;28;20036;-70
2024/01/18 08:08:45;;;;;;;4.67;3.47;;;;;;;-10.30;88.87;99459.78;5044357;28;20044;-69
2024/01/18 08:11:12;;;;;;;4.37;3.83;;;;;;;-10.37;92.43;99474.66;5044161;28;20045;-68
2024/01/18 08:13:37;;;;;;;3.97;3.50;;;;;;;-10.37;92.70;99454.06;5043688;28;20428;-70
2024/01/18 08:16:04;;;;;;;4.00;3.60;;;;;;;-10.50;93.70;99434.03;5028644;28;20044;-71
2024/01/18 08:18:30;;;;;;;5.28;4.18;;;;;;;-10.34;95.55;99453.09;5045152;28;20053;-70
2024/01/18 08:20:55;;;;;;;6.77;4.77;;;;;;;-10.42;97.59;99411.38;5045585;28;20041;-68
2024/01/18 08:23:23;;;;;;;3.93;3.53;;;;;;;-10.31;91.61;99409.22;5035529;28;20057;-69
2024/01/18 08:25:49;;;;;;;5.57;4.05;;;;;;;-10.23;90.64;99414.03;5044575;28;20044;-71
2024/01/18 08:28:14;;;;;;;5.63;3.60;;;;;;;-10.24;91.48;99422.66;5039765;28;20045;-70
2024/01/18 08:30:40;;;;;;;3.97;3.57;;;;;;;-10.14;91.31;99377.53;5038733;28;20068;-72
2024/01/18 08:33:09;;;;;;;3.92;3.63;;;;;;;-9.95;88.00;99429.09;5041497;28;20033;-73
2024/01/18 08:35:37;;;;;;;4.20;3.50;;;;;;;-10.02;86.15;99403.63;5043856;28;20177;-71
2024/01/18 08:38:07;;;;;;;4.95;3.65;;;;;;;-10.02;85.68;99377.84;5026383;28;20033;-73
2024/01/18 08:40:40;;;;;;;4.82;4.22;;;;;;;-10.20;86.52;99347.75;5043594;28;20191;-71
2024/01/18 08:43:08;;;;;;;7.23;5.43;;;;;;;-9.98;86.00;99368.25;5038426;28;20553;-75
2024/01/18 08:45:41;;;;;;;4.72;4.13;;;;;;;-10.01;84.83;99338.34;5038884;28;20519;-74
2024/01/18 08:48:19;;;;;;;5.10;3.92;;;;;;;-10.54;86.98;99271.22;5038903;28;20064;-74
2024/01/18 08:50:45;;;;;;;4.03;3.47;;;;;;;-10.17;87.00;99328.78;5029506;28;20120;-72
2024/01/18 08:53:10;;;;;;;4.63;4.23;;;;;;;-10.07;86.77;99309.44;5045594;28;20083;-73
2024/01/18 08:55:38;;;;;;;5.97;3.20;;;;;;;-10.02;86.90;99344.38;5040777;28;20060;-78
2024/01/18 08:58:05;;;;;;;3.80;3.60;;;;;;;-10.04;88.05;99322.19;5044353;28;20045;-76
2024/01/18 09:00:30;;;;;;;5.47;3.85;;;;;;;-10.09;89.61;99321.56;5046270;28;20041;-72
2024/01/18 09:02:56;;;;;;;4.60;4.03;;;;;;;-10.10;89.37;99289.00;5028364;28;20044;-78
2024/01/18 09:05:21;;;;;;;6.30;3.90;;;;;;;-9.80;88.86;99323.66;5054058;28;20052;-73
2024/01/18 09:07:47;;;;;;;5.27;4.87;;;;;;;-9.85;89.18;99302.41;5053017;28;20040;-72
2024/01/18 09:10:13;;;;;;;3.50;3.20;;;;;;;-10.22;88.16;99217.47;5055309;28;20064;-73
2024/01/18 09:12:38;;;;;;;4.90;4.40;;;;;;;-9.98;89.42;99274.72;5051162;28;20400;-74
2024/01/18 09:15:04;;;;;;;3.50;3.20;;;;;;;-9.79;91.93;99291.84;5055945;28;20033;-73
2024/01/18 09:17:33;;;;;;;5.18;4.03;;;;;;;-9.88;92.24;99256.19;5054921;28;20165;-73
2024/01/18 09:19:58;;;;;;;9.20;4.05;;;;;;;-9.79;95.81;99289.25;5051545;28;20056;-72
2024/01/18 09:22:24;;;;;;;5.63;3.83;;;;;;;-9.84;97.74;99282.63;5051011;28;20360;-72
2024/01/18 09:24:49;;;;;;;4.63;4.23;;;;;;;-9.92;99.11;99264.97;5047607;28;20464;-72
2024/01/18 09:27:18;;;;;;;4.13;3.75;;;;;;;-9.91;100.00;99256.31;5047788;28;20053;-70
2024/01/18 09:29:44;;;;;;;8.73;4.93;;;;;;;-10.31;100.00;99203.31;5041126;28;20167;-71
2024/01/18 09:32:09;;;;;;;7.47;5.00;;;;;;;-9.97;100.00;99246.31;5050008;28;20075;-74
2024/01/18 09:34:35;;;;;;;4.70;4.23;;;;;;;-10.13;100.00;99235.88;5034123;28;20370;-72
2024/01/18 09:37:02;;;;;;;5.50;4.50;;;;;;;-10.19;100.00;99227.59;5043238;28;20048;-74
2024/01/18 09:39:27;;;;;;;4.15;3.67;;;;;;;-10.16;100.00;99242.91;5044754;28;20049;-73
2024/01/18 09:41:54;;;;;;;5.50;4.10;;;;;;;-10.43;100.00;99194.38;5039108;28;20041;-74
2024/01/18 09:44:23;;;;;;;4.47;3.80;;;;;;;-10.07;100.00;99239.94;5039790;28;20039;-73
2024/01/18 09:46:50;;;;;;;4.88;3.95;;;;;;;-10.18;100.00;99200.97;5033218;28;20072;-70
2024/01/18 09:49:16;;;;;;;11.88;4.95;;;;;;;-10.27;100.00;99173.09;5038483;28;20045;-71
2024/01/18 09:51:43;;;;;;;4.88;4.25;;;;;;;-10.24;100.00;99199.53;5039467;28;20049;-72
2024/01/18 09:54:09;;;;;;;6.28;4.32;;;;;;;-10.16;100.00;99188.84;5033802;28;20068;-72
2024/01/18 09:56:42;;;;;;;7.13;4.07;;;;;;;-10.12;100.00;99180.06;5046107;28;20052;-69
2024/01/18 09:59:11;;;;;;;5.47;3.92;;;;;;;-10.16;100.00;99170.81;5037558;28;20275;-70
2024/01/18 10:01:37;;;;;;;6.57;4.50;;;;;;;-9.98;100.00;99172.53;5043377;28;20059;-70
2024/01/18 10:04:02;;;;;;;6.57;4.43;;;;;;;-10.14;100.00;99130.38;5024051;28;20575;-69
2024/01/18 10:06:28;;;;;;;4.33;4.03;;;;;;;-10.02;100.00;99134.97;5038919;28;20045;-71
2024/01/18 10:08:54;;;;;;;6.17;3.77;;;;;;;-9.91;100.00;99139.59;5034994;28;20036;-69
2024/01/18 10:11:19;;;;;;;7.43;4.67;;;;;;;-9.83;100.00;99119.44;5038083;28;20051;-70
2024/01/18 10:13:54;;;;;;;4.67;4.10;;;;;;;-9.69;100.00;99127.34;5038912;28;20041;-73
2024/01/18 10:16:35;;;;;;;11.25;5.18;;;;;;;-9.91;100.00;99106.13;5048027;28;20041;-73
2024/01/18 10:19:04;;;;;;;5.05;4.45;;;;;;;-9.91;100.00;99099.22;5041050;28;20165;-73
2024/01/18 10:21:34;;;;;;;5.50;4.88;;;;;;;-9.84;100.00;99089.44;5038373;28;20455;-76
2024/01/18 10:24:03;;;;;;;5.25;4.75;;;;;;;-9.77;100.00;99080.53;5037815;28;20071;-74
2024/01/18 10:26:33;;;;;;;5.15;4.72;;;;;;;-9.77;100.00;99047.88;5039660;28;20525;-73
2024/01/18 10:28:59;;;;;;;4.38;3.97;;;;;;;-9.52;100.00;99072.41;5040961;28;20505;-71
2024/01/18 10:31:25;;;;;;;9.10;6.13;;;;;;;-9.73;100.00;99040.81;5039358;28;20045;-72
2024/01/18 10:33:51;;;;;;;7.25;3.90;;;;;;;-9.63;100.00;99052.31;5035974;28;20648;-70
2024/01/18 10:36:18;;;;;;;6.15;5.53;;;;;;;-9.77;100.00;98993.78;5043359;28;20043;-71
2024/01/18 10:38:44;;;;;;;8.25;6.95;;;;;;;-9.51;100.00;99023.34;5040826;28;20041;-72
2024/01/18 10:41:10;;;;;;;10.07;4.80;;;;;;;-9.56;100.00;98996.13;5035655;28;20163;-70
2024/01/18 10:43:38;;;;;;;5.05;4.65;;;;;;;-10.12;100.00;98912.31;5045469;28;20048;-71
2024/01/18 10:46:05;;;;;;;3.92;3.60;;;;;;;-9.62;100.00;98986.16;5043962;28;20048;-69
2024/01/18 10:48:32;;;;;;;5.43;4.93;;;;;;;-9.29;100.00;99010.16;5041340;28;21065;-71
2024/01/18 10:51:01;;;;;;;4.50;4.10;;;;;;;-9.38;100.00;99002.91;5045321;28;20033;-72
2024/01/18 10:53:34;;;;;;;6.25;4.47;;;;;;;-9.46;100.00;98980.13;5046629;28;20048;-73
2024/01/18 10:56:01;;;;;;;4.22;3.83;;;;;;;-9.43;100.00;98987.69;5040284;28;20548;-72
2024/01/18 10:58:27;;;;;;;10.07;4.75;;;;;;;-9.48;100.00;98971.66;5041814;28;20041;-73
2024/01/18 11:00:54;;;;;;;9.93;4.18;;;;;;;-9.39;100.00;98965.16;5027125;28;20034;-73
2024/01/18 11:03:20;;;;;;;15.80;5.35;;;;;;;-9.93;100.00;98879.56;5044093;28;20051;-71
2024/01/18 11:05:48;;;;;;;5.82;4.60;;;;;;;-9.86;100.00;98877.50;5050031;28;20045;-72
2024/01/18 11:08:29;;;;;;;5.63;4.80;;;;;;;-9.36;100.00;98954.69;5031660;28;20040;-72
2024/01/18 11:10:55;;;;;;;3.90;3.60;;;;;;;-9.51;100.00;98919.44;5047838;28;20041;-72
2024/01/18 11:13:21;;;;;;;4.53;3.80;;;;;;;-9.76;100.00;98876.94;5044101;28;20044;-74
2024/01/18 11:15:52;;;;;;;6.93;3.93;;;;;;;-9.27;100.00;98938.72;5031431;28;20037;-69
2024/01/18 11:18:29;;;;;;;5.65;3.75;;;;;;;-9.46;100.00;98897.66;5041986;28;20102;-73